Terminal Aerodrome Forecast
Issued by NWS Denver/Boulder, CO

Home | Current Version | Previous Version | Text Only | Print | Product List | Glossary On
Versions: 1 2 3 4 5 6 7 8 9 10 11 12 13 14 15 16 17 18 19 20 21 22 23 24 25 26 27 28 29 30 31 32 33 34 35 36 37 38 39 40 41 42 43 44 45 46 47 48 49 50
000
FTUS45 KBOU 021903 AAA
TAFDEN
TAF AMD
KDEN 021903Z 0219/0324 31009KT P6SM FEW090 SCT120
     FM022300 28008KT P6SM VCSH SCT090 BKN120
      TEMPO 0223/0302 VRB20G30KT BKN080
     FM030300 21010KT P6SM SCT100 BKN150
     FM031400 28007KT P6SM SCT080 BKN120
     FM031700 VRB06KT P6SM SCT080 BKN120
     FM032100 21008KT P6SM VCSH BKN080=

USA.gov is the U.S. government's official web portal to all federal, state and local government web resources and services.